^^
Saratoga-Weather Station Historical Data
Daily Summary for February 25, 2021 Units:  English    Metric   Both
Daily Weekly Monthly Yearly Custom
  High: Low: Average:
Temperature: 64.8 °F 39.4 °F 50.4 °F
Dew Point: 44.6 °F 37.8 °F 41.7 °F
Humidity: 96% 44% 75%
Wind Speed: 6.9mph 0mph 0.6mph
Wind Gust: 8mph - -
Wind- - East
Pressure: 30.4 in 30.3 in -
Precipitation: 0 in    
Historical Graphs
 
 
Tabular Data for February 25, 2021
Time Temperature Dew Point Pressure Wind Wind Speed Wind Gust Humidity Rainfall Rate (Hourly) solar
00:01 46 °F 43.3 °F 30.3 in Calm     90% 0 in 0 W/m2
00:06 45.9 °F 43.2 °F 30.3 in Calm     90% 0 in 0 W/m2
00:11 45.7 °F 43 °F 30.3 in Calm     90% 0 in 0 W/m2
00:16 45.5 °F 42.8 °F 30.3 in Calm     90% 0 in 0 W/m2
00:21 45.3 °F 42.6 °F 30.3 in Calm     90% 0 in 0 W/m2
00:26 45.3 °F 42.6 °F 30.3 in Calm     90% 0 in 0 W/m2
00:31 45.1 °F 42.6 °F 30.4 in Calm     91% 0 in 0 W/m2
00:36 45.1 °F 42.6 °F 30.3 in Calm     91% 0 in 0 W/m2
00:41 45 °F 42.4 °F 30.4 in Calm     91% 0 in 0 W/m2
00:46 45 °F 42.4 °F 30.3 in Calm     91% 0 in 0 W/m2
00:51 44.8 °F 42.3 °F 30.3 in Calm     91% 0 in 0 W/m2
00:56 44.6 °F 42.1 °F 30.3 in Calm     91% 0 in 0 W/m2
01:01 44.4 °F 42.3 °F 30.3 in Calm     92% 0 in 0 W/m2
01:06 44.2 °F 42.1 °F 30.4 in Calm     92% 0 in 0 W/m2
01:11 44.2 °F 42.1 °F 30.4 in Calm     92% 0 in 0 W/m2
01:16 44.1 °F 41.9 °F 30.4 in Calm     92% 0 in 0 W/m2
01:21 44.1 °F 41.9 °F 30.4 in Calm     92% 0 in 0 W/m2
01:26 43.9 °F 41.7 °F 30.4 in Calm     92% 0 in 0 W/m2
01:31 43.9 °F 41.7 °F 30.3 in Calm     92% 0 in 0 W/m2
01:36 43.9 °F 41.9 °F 30.3 in Calm     93% 0 in 0 W/m2
01:41 43.9 °F 41.9 °F 30.3 in Calm     93% 0 in 0 W/m2
01:46 43.9 °F 41.9 °F 30.3 in Calm     93% 0 in 0 W/m2
01:51 43.9 °F 41.9 °F 30.3 in Calm     93% 0 in 0 W/m2
01:56 43.9 °F 41.9 °F 30.3 in Calm     93% 0 in 0 W/m2
02:01 43.7 °F 41.7 °F 30.3 in Calm     93% 0 in 0 W/m2
02:06 43.7 °F 41.7 °F 30.3 in Calm     93% 0 in 0 W/m2
02:11 43.5 °F 41.7 °F 30.3 in Calm     93% 0 in 0 W/m2
02:16 43.3 °F 41.5 °F 30.3 in Calm     93% 0 in 0 W/m2
02:21 43.2 °F 41 °F 30.3 in Calm     92% 0 in 0 W/m2
02:26 43.2 °F 41 °F 30.3 in Calm     92% 0 in 0 W/m2
02:31 43.2 °F 41.4 °F 30.3 in Calm     93% 0 in 0 W/m2
02:36 43 °F 41.2 °F 30.3 in ESE 0.9 mph 1 mph 93% 0 in 0 W/m2
02:41 43 °F 41.2 °F 30.3 in Calm     93% 0 in 0 W/m2
02:46 43 °F 41.2 °F 30.3 in Calm     93% 0 in 0 W/m2
02:51 43.2 °F 41.4 °F 30.3 in Calm     93% 0 in 0 W/m2
02:56 43.3 °F 41.5 °F 30.3 in Calm     93% 0 in 0 W/m2
03:01 43.3 °F 41.5 °F 30.3 in Calm     93% 0 in 0 W/m2
03:06 43.2 °F 41.4 °F 30.3 in Calm     93% 0 in 0 W/m2
03:16 42.8 °F 41 °F 30.3 in Calm     93% 0 in 0 W/m2
03:21 42.8 °F 41 °F 30.3 in Calm   1 mph 93% 0 in 0 W/m2
03:26 42.8 °F 41 °F 30.3 in Calm   1 mph 93% 0 in 0 W/m2
03:31 42.6 °F 40.8 °F 30.3 in Calm     93% 0 in 0 W/m2
03:36 42.4 °F 40.6 °F 30.3 in Calm   1 mph 93% 0 in 0 W/m2
03:41 42.4 °F 40.6 °F 30.3 in Calm     93% 0 in 0 W/m2
03:46 42.3 °F 40.5 °F 30.3 in Calm     93% 0 in 0 W/m2
03:51 42.1 °F 40.3 °F 30.3 in Calm     93% 0 in 0 W/m2
03:56 41.9 °F 40.1 °F 30.3 in Calm     93% 0 in 0 W/m2
04:02 41.7 °F 39.9 °F 30.3 in Calm     93% 0 in 0 W/m2
04:07 41.5 °F 39.7 °F 30.3 in Calm     93% 0 in 0 W/m2
04:12 41.5 °F 39.7 °F 30.3 in Calm     93% 0 in 0 W/m2
04:17 41.5 °F 39.9 °F 30.3 in Calm     94% 0 in 0 W/m2
04:22 41.5 °F 39.9 °F 30.3 in Calm     94% 0 in 0 W/m2
04:27 41.5 °F 39.7 °F 30.3 in Calm     93% 0 in 0 W/m2
04:32 41.4 °F 39.6 °F 30.3 in Calm     93% 0 in 0 W/m2
04:37 41.4 °F 39.6 °F 30.3 in Calm     93% 0 in 0 W/m2
04:42 41.2 °F 39.6 °F 30.3 in Calm     94% 0 in 0 W/m2
04:47 41.2 °F 39.6 °F 30.3 in Calm     94% 0 in 0 W/m2
04:52 41 °F 39.4 °F 30.3 in Calm     94% 0 in 0 W/m2
04:57 41 °F 39.4 °F 30.3 in Calm     94% 0 in 0 W/m2
05:02 40.8 °F 39.2 °F 30.3 in Calm     94% 0 in 0 W/m2
05:07 40.8 °F 39.2 °F 30.3 in Calm     94% 0 in 0 W/m2
05:12 40.8 °F 39.2 °F 30.3 in Calm     94% 0 in 0 W/m2
05:17 40.8 °F 39.2 °F 30.3 in Calm     94% 0 in 0 W/m2
05:22 41 °F 39.4 °F 30.3 in Calm     94% 0 in 0 W/m2
05:27 41 °F 39.4 °F 30.3 in Calm     94% 0 in 0 W/m2
05:32 41.4 °F 40.1 °F 30.3 in Calm   1 mph 95% 0 in 0 W/m2
05:37 41.4 °F 40.1 °F 30.3 in Calm   1 mph 95% 0 in 0 W/m2
05:42 41.4 °F 40.1 °F 30.3 in Calm     95% 0 in 0 W/m2
05:47 41.2 °F 39.6 °F 30.3 in Calm   1 mph 94% 0 in 0 W/m2
05:52 41 °F 39.4 °F 30.3 in Calm     94% 0 in 0 W/m2
05:57 40.8 °F 39.2 °F 30.3 in Calm     94% 0 in 0 W/m2
06:02 40.6 °F 39 °F 30.3 in Calm     94% 0 in 0 W/m2
06:07 40.5 °F 38.8 °F 30.3 in Calm     94% 0 in 0 W/m2
06:12 40.3 °F 38.7 °F 30.3 in Calm     94% 0 in 0 W/m2
06:17 40.1 °F 38.5 °F 30.3 in Calm     94% 0 in 0 W/m2
06:22 39.9 °F 38.3 °F 30.3 in Calm     94% 0 in 0 W/m2
06:27 39.9 °F 38.3 °F 30.3 in Calm     94% 0 in 0 W/m2
06:32 39.9 °F 38.3 °F 30.3 in Calm     94% 0 in 0 W/m2
06:37 39.7 °F 38.1 °F 30.3 in Calm     94% 0 in 0 W/m2
06:42 39.7 °F 38.1 °F 30.3 in Calm     94% 0 in 0 W/m2
06:47 39.7 °F 38.1 °F 30.3 in Calm     94% 0 in 0 W/m2
06:52 39.7 °F 38.5 °F 30.3 in Calm     95% 0 in 0 W/m2
06:57 39.7 °F 38.5 °F 30.3 in Calm     95% 0 in 0 W/m2
07:02 39.6 °F 38.3 °F 30.3 in Calm     95% 0 in 0 W/m2
07:07 39.6 °F 38.3 °F 30.3 in Calm     95% 0 in 0 W/m2
07:12 39.7 °F 38.5 °F 30.3 in Calm     95% 0 in 0 W/m2
07:17 39.7 °F 38.5 °F 30.3 in Calm     95% 0 in 0 W/m2
07:27 39.7 °F 38.5 °F 30.3 in Calm     95% 0 in 0 W/m2
07:32 39.6 °F 38.3 °F 30.3 in Calm     95% 0 in 7 W/m2
07:37 39.4 °F 37.8 °F 30.3 in Calm     94% 0 in 9 W/m2
07:42 39.4 °F 38.1 °F 30.3 in Calm     95% 0 in 12 W/m2
07:47 39.4 °F 38.1 °F 30.3 in Calm     95% 0 in 14 W/m2
07:52 39.6 °F 38.3 °F 30.3 in Calm     95% 0 in 18 W/m2
07:57 39.6 °F 38.3 °F 30.3 in Calm     95% 0 in 21 W/m2
08:02 39.6 °F 38.3 °F 30.4 in Calm     95% 0 in 25 W/m2
08:07 39.6 °F 38.3 °F 30.4 in Calm     95% 0 in 28 W/m2
08:12 39.6 °F 38.3 °F 30.3 in Calm     95% 0 in 32 W/m2
08:17 39.6 °F 38.3 °F 30.4 in Calm     95% 0 in 35 W/m2
08:22 39.6 °F 38.3 °F 30.4 in Calm     95% 0 in 39 W/m2
08:27 39.6 °F 38.3 °F 30.4 in Calm     95% 0 in 42 W/m2
08:32 39.7 °F 38.5 °F 30.4 in Calm   1 mph 95% 0 in 49 W/m2
08:37 40.3 °F 39.2 °F 30.4 in Calm   1 mph 96% 0 in 49 W/m2
08:42 40.6 °F 39.6 °F 30.4 in Calm     96% 0 in 90 W/m2
08:47 40.8 °F 39.6 °F 30.4 in Calm     95% 0 in 100 W/m2
08:52 41.2 °F 39.9 °F 30.4 in Calm     95% 0 in 113 W/m2
08:57 41.4 °F 40.1 °F 30.4 in Calm     95% 0 in 116 W/m2
09:02 41.7 °F 40.5 °F 30.4 in Calm     95% 0 in 120 W/m2
09:07 42.1 °F 40.8 °F 30.4 in Calm     95% 0 in 120 W/m2
09:12 42.4 °F 41.2 °F 30.4 in Calm     95% 0 in 116 W/m2
09:17 43 °F 41.7 °F 30.4 in Calm     95% 0 in 98 W/m2
09:22 43.5 °F 41.9 °F 30.4 in Calm     94% 0 in 148 W/m2
09:27 43.9 °F 42.3 °F 30.4 in Calm     94% 0 in 104 W/m2
09:32 44.4 °F 42.4 °F 30.4 in Calm     93% 0 in 206 W/m2
09:37 45.1 °F 43 °F 30.4 in Calm   1 mph 92% 0 in 197 W/m2
09:42 45.7 °F 43.2 °F 30.4 in Calm     91% 0 in 229 W/m2
09:47 46.2 °F 43.2 °F 30.4 in Calm     89% 0 in 241 W/m2
09:52 46.8 °F 43.2 °F 30.4 in Calm     87% 0 in 255 W/m2
09:57 47.7 °F 44.1 °F 30.4 in Calm     87% 0 in 269 W/m2
10:07 49.1 °F 43.2 °F 30.4 in Calm   2 mph 80% 0 in 294 W/m2
10:12 49.5 °F 42.8 °F 30.4 in Calm     78% 0 in 304 W/m2
10:17 50.2 °F 43.5 °F 30.4 in Calm   2 mph 78% 0 in 313 W/m2
10:22 50.7 °F 43.5 °F 30.4 in Calm   2 mph 76% 0 in 327 W/m2
10:27 51.3 °F 43.9 °F 30.4 in ENE 0.9 mph 3 mph 76% 0 in 338 W/m2
10:32 51.3 °F 43.5 °F 30.4 in Calm   3 mph 75% 0 in 345 W/m2
10:37 51.4 °F 43.5 °F 30.4 in East 2.9 mph 3 mph 74% 0 in 353 W/m2
10:42 51.8 °F 43.7 °F 30.4 in East 0.9 mph 1 mph 74% 0 in 357 W/m2
10:47 52.2 °F 43.7 °F 30.4 in Calm   3 mph 73% 0 in 357 W/m2
10:52 52.9 °F 43.7 °F 30.4 in Calm   2 mph 71% 0 in 380 W/m2
10:57 53.2 °F 43.7 °F 30.4 in Calm     70% 0 in 371 W/m2
11:02 53.8 °F 43.5 °F 30.4 in Calm   1 mph 68% 0 in 396 W/m2
11:07 54.3 °F 44.1 °F 30.4 in ENE 0.9 mph 2 mph 68% 0 in 404 W/m2
11:12 55 °F 44.6 °F 30.4 in Calm   3 mph 68% 0 in 410 W/m2
11:17 55.2 °F 44.1 °F 30.4 in ENE 2.9 mph 3 mph 66% 0 in 404 W/m2
11:22 55.8 °F 43.7 °F 30.4 in East 2 mph 4 mph 64% 0 in 406 W/m2
11:27 55.9 °F 43.9 °F 30.4 in ENE 0.9 mph 4 mph 64% 0 in 308 W/m2
11:32 56.1 °F 44.1 °F 30.4 in ENE 2 mph 2 mph 64% 0 in 250 W/m2
11:37 56.1 °F 44.1 °F 30.4 in ENE 0.9 mph 4 mph 64% 0 in 255 W/m2
11:42 56.5 °F 43.7 °F 30.4 in ENE 2 mph 2 mph 62% 0 in 176 W/m2
11:47 56.8 °F 43.5 °F 30.4 in East 2 mph 3 mph 61% 0 in 223 W/m2
11:52 57.2 °F 43.5 °F 30.4 in ENE 0.9 mph 2 mph 60% 0 in 364 W/m2
11:57 57.7 °F 43.9 °F 30.4 in East 2 mph 4 mph 60% 0 in 294 W/m2
12:02 58.3 °F 43.5 °F 30.4 in NE 2 mph 4 mph 58% 0 in 404 W/m2
12:07 58.6 °F 43.5 °F 30.4 in East 0.9 mph 4 mph 57% 0 in 399 W/m2
12:12 59 °F 43.3 °F 30.4 in Calm   2 mph 56% 0 in 438 W/m2
12:17 59.5 °F 43.9 °F 30.4 in NE 0.9 mph 5 mph 56% 0 in 448 W/m2
12:22 59.9 °F 43.2 °F 30.4 in East 2 mph 3 mph 54% 0 in 469 W/m2
12:27 60.4 °F 43.7 °F 30.3 in SE 0.9 mph 5 mph 54% 0 in 469 W/m2
12:32 60.6 °F 43.3 °F 30.3 in NE 4 mph 4 mph 53% 0 in 471 W/m2
12:37 61 °F 43.7 °F 30.3 in ENE 2.9 mph 5 mph 53% 0 in 367 W/m2
12:42 61.2 °F 43.3 °F 30.3 in ENE 0.9 mph 4 mph 52% 0 in 345 W/m2
12:47 61.2 °F 43 °F 30.3 in ENE 2 mph 5 mph 51% 0 in 427 W/m2
12:52 61.2 °F 43.3 °F 30.3 in East 2 mph 4 mph 52% 0 in 366 W/m2
12:57 61.3 °F 43.5 °F 30.3 in NE 2 mph 3 mph 52% 0 in 443 W/m2
13:02 61.7 °F 43.9 °F 30.3 in East 4 mph 6 mph 52% 0 in 464 W/m2
13:07 62.1 °F 43.7 °F 30.3 in East 2.9 mph 3 mph 51% 0 in 411 W/m2
13:12 62.1 °F 43.7 °F 30.3 in East 4 mph 8 mph 51% 0 in 401 W/m2
13:17 62.2 °F 43.3 °F 30.3 in ENE 2 mph 4 mph 50% 0 in 318 W/m2
13:22 62.4 °F 44.6 °F 30.3 in SE 2 mph 4 mph 52% 0 in 192 W/m2
13:27 62.6 °F 43.2 °F 30.3 in East 6 mph 6 mph 49% 0 in 169 W/m2
13:32 62.8 °F 43.9 °F 30.3 in East 2.9 mph 4 mph 50% 0 in 193 W/m2
13:38 62.8 °F 43.3 °F 30.3 in East 4 mph 6 mph 49% 0 in 169 W/m2
13:43 63 °F 44.1 °F 30.3 in East 4 mph 4 mph 50% 0 in 186 W/m2
13:48 63 °F 43 °F 30.3 in Calm   4 mph 48% 0 in 169 W/m2
13:53 63 °F 43.5 °F 30.3 in ESE 2 mph 4 mph 49% 0 in 188 W/m2
13:58 63.1 °F 43.2 °F 30.3 in ENE 4.9 mph 6 mph 48% 0 in 197 W/m2
14:03 63.3 °F 43.3 °F 30.3 in SE 4 mph 7 mph 48% 0 in 188 W/m2
14:08 63.3 °F 42.8 °F 30.3 in SE 0.9 mph 4 mph 47% 0 in 139 W/m2
14:13 63.5 °F 43.5 °F 30.3 in East 2 mph 4 mph 48% 0 in 165 W/m2
14:18 63.7 °F 43.7 °F 30.3 in East 2 mph 4 mph 48% 0 in 207 W/m2
14:23 63.9 °F 43.2 °F 30.3 in ENE 2 mph 5 mph 47% 0 in 176 W/m2
14:28 64 °F 43.3 °F 30.3 in East 2 mph 3 mph 47% 0 in 204 W/m2
14:33 64.2 °F 43 °F 30.3 in ESE 2.9 mph 6 mph 46% 0 in 225 W/m2
14:38 64.4 °F 43.2 °F 30.3 in ESE 0.9 mph 7 mph 46% 0 in 357 W/m2
14:43 64.6 °F 43.3 °F 30.3 in NE 0.9 mph 4 mph 46% 0 in 334 W/m2
14:48 64.8 °F 43 °F 30.3 in East 6.9 mph 7 mph 45% 0 in 230 W/m2
14:53 64.8 °F 43 °F 30.3 in ESE 2.9 mph 6 mph 45% 0 in 160 W/m2
14:58 64.8 °F 43 °F 30.3 in East 2 mph 7 mph 45% 0 in 190 W/m2
15:03 64.8 °F 43.5 °F 30.3 in East 4.9 mph 6 mph 46% 0 in 229 W/m2
15:08 64.6 °F 42.3 °F 30.3 in East 2.9 mph 7 mph 44% 0 in 200 W/m2
15:13 64.6 °F 42.8 °F 30.3 in East 4.9 mph 7 mph 45% 0 in 146 W/m2
15:18 64.8 °F 43 °F 30.3 in East 0.9 mph 5 mph 45% 0 in 156 W/m2
15:23 64.8 °F 42.3 °F 30.3 in ENE 2.9 mph 6 mph 44% 0 in 169 W/m2
15:28 64.8 °F 42.3 °F 30.3 in SSE 0.9 mph 4 mph 44% 0 in 142 W/m2
15:33 64.8 °F 43 °F 30.3 in ESE 2.9 mph 3 mph 45% 0 in 213 W/m2
15:38 64.8 °F 43 °F 30.3 in East 6.9 mph 8 mph 45% 0 in 144 W/m2
15:43 64.8 °F 43.5 °F 30.3 in East 0.9 mph 2 mph 46% 0 in 125 W/m2
15:48 64.6 °F 42.8 °F 30.3 in ESE 0.9 mph 8 mph 45% 0 in 123 W/m2
15:53 64.4 °F 43.7 °F 30.3 in WSW 0.9 mph 3 mph 47% 0 in 158 W/m2
15:58 64.2 °F 42.4 °F 30.3 in ESE 0.9 mph 4 mph 45% 0 in 148 W/m2
16:03 64.2 °F 42.4 °F 30.3 in ESE 0.9 mph 6 mph 45% 0 in 153 W/m2
16:08 64.2 °F 43 °F 30.3 in ESE 2.9 mph 3 mph 46% 0 in 128 W/m2
16:13 64.2 °F 43 °F 30.3 in ESE 0.9 mph 3 mph 46% 0 in 134 W/m2
16:18 64 °F 42.8 °F 30.3 in ESE 2 mph 2 mph 46% 0 in 174 W/m2
16:23 64 °F 42.8 °F 30.3 in Calm   2 mph 46% 0 in 183 W/m2
16:28 64 °F 43.9 °F 30.3 in Calm   1 mph 48% 0 in 135 W/m2
16:33 63.9 °F 42.1 °F 30.3 in SE 0.9 mph 1 mph 45% 0 in 130 W/m2
16:38 63.9 °F 43.2 °F 30.3 in Calm     47% 0 in 105 W/m2
16:43 63.7 °F 42.4 °F 30.3 in Calm     46% 0 in 98 W/m2
16:48 63.7 °F 41.9 °F 30.3 in Calm   2 mph 45% 0 in 91 W/m2
16:53 63.7 °F 44.2 °F 30.3 in Calm   2 mph 49% 0 in 86 W/m2
17:03 63.1 °F 43.7 °F 30.3 in Calm   1 mph 49% 0 in 74 W/m2
17:08 63 °F 43.5 °F 30.3 in Calm   1 mph 49% 0 in 58 W/m2
17:13 62.4 °F 44.1 °F 30.3 in Calm     51% 0 in 49 W/m2
17:18 62.1 °F 44.2 °F 30.3 in Calm     52% 0 in 44 W/m2
17:28 61 °F 43.7 °F 30.3 in Calm     53% 0 in 35 W/m2
17:33 60.4 °F 43.7 °F 30.3 in Calm     54% 0 in 33 W/m2
17:38 60.1 °F 43.9 °F 30.3 in Calm     55% 0 in 32 W/m2
17:43 59.5 °F 43.9 °F 30.3 in Calm     56% 0 in 28 W/m2
17:48 59.2 °F 43.5 °F 30.3 in Calm     56% 0 in 26 W/m2
17:53 58.6 °F 43.5 °F 30.3 in Calm   1 mph 57% 0 in 21 W/m2
17:58 58.3 °F 43.2 °F 30.3 in Calm   1 mph 57% 0 in 14 W/m2
18:03 57.7 °F 43 °F 30.3 in Calm     58% 0 in 7 W/m2
18:08 57.4 °F 43.2 °F 30.3 in ESE 0.9 mph 1 mph 59% 0 in 5 W/m2
18:13 56.8 °F 42.6 °F 30.3 in Calm   1 mph 59% 0 in 0 W/m2
18:18 56.5 °F 42.8 °F 30.3 in Calm   1 mph 60% 0 in 0 W/m2
18:23 55.9 °F 43.2 °F 30.3 in ESE 0.9 mph 2 mph 62% 0 in 0 W/m2
18:28 55.6 °F 42.8 °F 30.3 in ESE 0.9 mph 1 mph 62% 0 in 0 W/m2
18:33 55.2 °F 42.8 °F 30.3 in ESE 0.9 mph 2 mph 63% 0 in 0 W/m2
18:38 54.7 °F 42.3 °F 30.3 in ESE 0.9 mph 2 mph 63% 0 in 0 W/m2
18:43 54.3 °F 42.4 °F 30.3 in Calm     64% 0 in 0 W/m2
18:48 54.1 °F 42.6 °F 30.3 in Calm     65% 0 in 0 W/m2
18:53 53.8 °F 42.3 °F 30.3 in ESE 0.9 mph 1 mph 65% 0 in 0 W/m2
18:58 53.8 °F 42.3 °F 30.3 in Calm   1 mph 65% 0 in 0 W/m2
19:03 53.4 °F 42.3 °F 30.3 in Calm   1 mph 66% 0 in 0 W/m2
19:08 53.2 °F 42.6 °F 30.3 in Calm     67% 0 in 0 W/m2
19:13 53.1 °F 42.4 °F 30.3 in Calm   1 mph 67% 0 in 0 W/m2
19:18 52.7 °F 42.4 °F 30.3 in Calm     68% 0 in 0 W/m2
19:23 52.3 °F 42.1 °F 30.3 in Calm     68% 0 in 0 W/m2
19:28 52.2 °F 41.9 °F 30.3 in Calm     68% 0 in 0 W/m2
19:33 52 °F 41.7 °F 30.3 in Calm     68% 0 in 0 W/m2
19:38 51.6 °F 41.7 °F 30.3 in Calm     69% 0 in 0 W/m2
19:43 51.6 °F 41.7 °F 30.3 in Calm     69% 0 in 0 W/m2
19:48 51.4 °F 41.5 °F 30.3 in Calm     69% 0 in 0 W/m2
19:53 51.4 °F 41.5 °F 30.3 in Calm   1 mph 69% 0 in 0 W/m2
19:58 51.3 °F 41.9 °F 30.3 in Calm     70% 0 in 0 W/m2
20:03 51.1 °F 41.7 °F 30.3 in Calm     70% 0 in 0 W/m2
20:09 51.1 °F 41.7 °F 30.3 in Calm     70% 0 in 0 W/m2
20:14 50.9 °F 41.5 °F 30.3 in Calm     70% 0 in 0 W/m2
20:19 50.7 °F 41.4 °F 30.3 in Calm     70% 0 in 0 W/m2
20:24 50.7 °F 41.7 °F 30.3 in Calm     71% 0 in 0 W/m2
20:29 50.5 °F 41.5 °F 30.3 in Calm     71% 0 in 0 W/m2
20:34 50.5 °F 41.5 °F 30.3 in Calm     71% 0 in 0 W/m2
20:39 50.4 °F 41.4 °F 30.3 in Calm     71% 0 in 0 W/m2
20:44 50.4 °F 41.4 °F 30.3 in Calm     71% 0 in 0 W/m2
20:49 50.2 °F 41.2 °F 30.3 in Calm     71% 0 in 0 W/m2
20:54 50 °F 41 °F 30.3 in Calm     71% 0 in 0 W/m2
20:59 49.8 °F 40.8 °F 30.3 in Calm     71% 0 in 0 W/m2
21:04 49.8 °F 40.5 °F 30.3 in Calm     70% 0 in 0 W/m2
21:09 49.6 °F 40.3 °F 30.3 in Calm     70% 0 in 0 W/m2
21:14 49.8 °F 40.5 °F 30.3 in Calm     70% 0 in 0 W/m2
21:19 49.8 °F 40.8 °F 30.4 in Calm     71% 0 in 0 W/m2
21:24 49.6 °F 41 °F 30.4 in Calm     72% 0 in 0 W/m2
21:29 49.5 °F 40.8 °F 30.4 in Calm     72% 0 in 0 W/m2
21:34 49.3 °F 40.6 °F 30.4 in Calm     72% 0 in 0 W/m2
21:39 49.3 °F 40.6 °F 30.4 in Calm     72% 0 in 0 W/m2
21:44 49.3 °F 41 °F 30.4 in Calm     73% 0 in 0 W/m2
21:49 49.5 °F 41.2 °F 30.4 in Calm     73% 0 in 0 W/m2
21:54 49.5 °F 41.2 °F 30.4 in Calm     73% 0 in 0 W/m2
21:59 49.3 °F 41 °F 30.4 in Calm     73% 0 in 0 W/m2
22:04 49.3 °F 41 °F 30.4 in Calm     73% 0 in 0 W/m2
22:09 49.1 °F 41.2 °F 30.4 in Calm     74% 0 in 0 W/m2
22:14 48.7 °F 40.8 °F 30.4 in Calm     74% 0 in 0 W/m2
22:19 48.7 °F 41.2 °F 30.4 in Calm     75% 0 in 0 W/m2
22:24 48.6 °F 41.4 °F 30.4 in Calm     76% 0 in 0 W/m2
22:29 48.4 °F 41.2 °F 30.4 in Calm     76% 0 in 0 W/m2
22:34 48.4 °F 41.5 °F 30.4 in Calm     77% 0 in 0 W/m2
22:39 48.2 °F 41.4 °F 30.4 in Calm     77% 0 in 0 W/m2
22:44 48 °F 41.2 °F 30.4 in Calm     77% 0 in 0 W/m2
22:49 47.8 °F 41.4 °F 30.4 in Calm     78% 0 in 0 W/m2
22:54 47.7 °F 41.2 °F 30.4 in Calm     78% 0 in 0 W/m2
22:59 47.5 °F 41 °F 30.4 in Calm     78% 0 in 0 W/m2
23:04 47.1 °F 40.6 °F 30.4 in Calm     78% 0 in 0 W/m2
23:09 46.9 °F 40.8 °F 30.4 in Calm     79% 0 in 0 W/m2
23:14 46.9 °F 40.8 °F 30.4 in Calm     79% 0 in 0 W/m2
23:19 46.8 °F 40.6 °F 30.4 in Calm     79% 0 in 0 W/m2
23:24 46.6 °F 40.5 °F 30.4 in Calm     79% 0 in 0 W/m2
23:29 46.6 °F 40.5 °F 30.4 in Calm     79% 0 in 0 W/m2
23:34 46.8 °F 40.6 °F 30.4 in Calm     79% 0 in 0 W/m2
23:39 46.6 °F 40.5 °F 30.4 in Calm     79% 0 in 0 W/m2
23:44 46.6 °F 40.8 °F 30.4 in Calm     80% 0 in 0 W/m2
23:49 46.6 °F 40.5 °F 30.4 in Calm     79% 0 in 0 W/m2
23:54 46.6 °F 40.8 °F 30.4 in Calm     80% 0 in 0 W/m2
23:59 46.2 °F 40.5 °F 30.4 in West 2 mph 2 mph 80% 0 in 0 W/m2
Juneau County Weather
Compliments of Weather Underground - 2 mb